sensor_id;sensor_type;location;lat;lon;timestamp;P1;durP1;ratioP1;P2;durP2;ratioP2
4434;SDS011;46552;52.150;8.428;2023-03-23T00:01:58;9.03;;;4.63;;
4434;SDS011;46552;52.150;8.428;2023-03-23T00:04:26;8.97;;;4.87;;
4434;SDS011;46552;52.150;8.428;2023-03-23T00:06:56;7.63;;;5.23;;
4434;SDS011;46552;52.150;8.428;2023-03-23T00:09:26;8.13;;;5.00;;
4434;SDS011;46552;52.150;8.428;2023-03-23T00:11:55;14.30;;;5.33;;
4434;SDS011;46552;52.150;8.428;2023-03-23T00:14:31;13.40;;;6.00;;
4434;SDS011;46552;52.150;8.428;2023-03-23T00:17:06;10.60;;;5.80;;
4434;SDS011;46552;52.150;8.428;2023-03-23T00:19:34;10.60;;;5.67;;
4434;SDS011;46552;52.150;8.428;2023-03-23T00:22:17;13.57;;;5.93;;
4434;SDS011;46552;52.150;8.428;2023-03-23T00:24:46;15.57;;;6.83;;
4434;SDS011;46552;52.150;8.428;2023-03-23T00:27:15;11.07;;;5.70;;
4434;SDS011;46552;52.150;8.428;2023-03-23T00:29:43;14.40;;;5.47;;
4434;SDS011;46552;52.150;8.428;2023-03-23T00:32:12;9.97;;;5.70;;
4434;SDS011;46552;52.150;8.428;2023-03-23T00:34:41;15.33;;;5.40;;
4434;SDS011;46552;52.150;8.428;2023-03-23T00:37:11;17.03;;;7.00;;
4434;SDS011;46552;52.150;8.428;2023-03-23T00:39:44;9.50;;;4.80;;
4434;SDS011;46552;52.150;8.428;2023-03-23T00:42:12;10.17;;;5.87;;
4434;SDS011;46552;52.150;8.428;2023-03-23T00:44:41;15.10;;;5.63;;
4434;SDS011;46552;52.150;8.428;2023-03-23T00:47:10;9.63;;;4.90;;
4434;SDS011;46552;52.150;8.428;2023-03-23T00:49:38;9.37;;;5.10;;
4434;SDS011;46552;52.150;8.428;2023-03-23T00:52:06;10.73;;;5.30;;
4434;SDS011;46552;52.150;8.428;2023-03-23T00:54:33;16.60;;;5.23;;
4434;SDS011;46552;52.150;8.428;2023-03-23T00:57:05;9.87;;;6.10;;
4434;SDS011;46552;52.150;8.428;2023-03-23T00:59:34;7.80;;;4.90;;
4434;SDS011;46552;52.150;8.428;2023-03-23T01:02:01;9.90;;;5.10;;
4434;SDS011;46552;52.150;8.428;2023-03-23T01:04:28;11.00;;;4.80;;
4434;SDS011;46552;52.150;8.428;2023-03-23T01:06:56;14.47;;;5.63;;
4434;SDS011;46552;52.150;8.428;2023-03-23T01:09:25;10.57;;;5.47;;
4434;SDS011;46552;52.150;8.428;2023-03-23T01:11:53;10.37;;;5.63;;
4434;SDS011;46552;52.150;8.428;2023-03-23T01:14:23;12.93;;;6.40;;
4434;SDS011;46552;52.150;8.428;2023-03-23T01:16:50;8.30;;;5.50;;
4434;SDS011;46552;52.150;8.428;2023-03-23T01:19:17;9.57;;;4.70;;
4434;SDS011;46552;52.150;8.428;2023-03-23T01:21:44;7.90;;;4.90;;
4434;SDS011;46552;52.150;8.428;2023-03-23T01:24:12;13.50;;;6.17;;
4434;SDS011;46552;52.150;8.428;2023-03-23T01:26:39;12.70;;;5.97;;
4434;SDS011;46552;52.150;8.428;2023-03-23T01:29:07;10.23;;;4.50;;
4434;SDS011;46552;52.150;8.428;2023-03-23T01:31:36;11.20;;;5.50;;
4434;SDS011;46552;52.150;8.428;2023-03-23T01:34:03;7.23;;;5.10;;
4434;SDS011;46552;52.150;8.428;2023-03-23T01:36:31;8.13;;;4.90;;
4434;SDS011;46552;52.150;8.428;2023-03-23T01:38:59;13.20;;;4.40;;
4434;SDS011;46552;52.150;8.428;2023-03-23T01:41:28;8.13;;;4.73;;
4434;SDS011;46552;52.150;8.428;2023-03-23T01:43:56;8.37;;;4.40;;
4434;SDS011;46552;52.150;8.428;2023-03-23T01:46:27;10.17;;;5.43;;
4434;SDS011;46552;52.150;8.428;2023-03-23T01:48:57;10.43;;;4.57;;
4434;SDS011;46552;52.150;8.428;2023-03-23T01:51:31;11.20;;;5.00;;
4434;SDS011;46552;52.150;8.428;2023-03-23T01:54:02;7.27;;;4.63;;
4434;SDS011;46552;52.150;8.428;2023-03-23T01:56:34;8.60;;;4.33;;
4434;SDS011;46552;52.150;8.428;2023-03-23T01:59:07;8.87;;;4.33;;
4434;SDS011;46552;52.150;8.428;2023-03-23T02:01:35;8.87;;;4.23;;
4434;SDS011;46552;52.150;8.428;2023-03-23T02:04:09;11.10;;;4.30;;
4434;SDS011;46552;52.150;8.428;2023-03-23T02:06:37;7.07;;;4.50;;
4434;SDS011;46552;52.150;8.428;2023-03-23T02:09:05;7.27;;;4.50;;
4434;SDS011;46552;52.150;8.428;2023-03-23T02:11:32;6.60;;;3.60;;
4434;SDS011;46552;52.150;8.428;2023-03-23T02:14:00;9.10;;;4.30;;
4434;SDS011;46552;52.150;8.428;2023-03-23T02:16:31;9.37;;;3.77;;
4434;SDS011;46552;52.150;8.428;2023-03-23T02:19:07;9.80;;;3.83;;
4434;SDS011;46552;52.150;8.428;2023-03-23T02:22:01;6.90;;;3.90;;
4434;SDS011;46552;52.150;8.428;2023-03-23T02:24:55;7.10;;;3.83;;
4434;SDS011;46552;52.150;8.428;2023-03-23T02:27:29;9.37;;;3.70;;
4434;SDS011;46552;52.150;8.428;2023-03-23T02:33:18;9.97;;;4.63;;
4434;SDS011;46552;52.150;8.428;2023-03-23T02:36:11;8.13;;;4.50;;
4434;SDS011;46552;52.150;8.428;2023-03-23T02:38:48;9.03;;;4.03;;
4434;SDS011;46552;52.150;8.428;2023-03-23T02:41:22;7.80;;;3.80;;
4434;SDS011;46552;52.150;8.428;2023-03-23T02:43:53;9.50;;;3.70;;
4434;SDS011;46552;52.150;8.428;2023-03-23T02:46:23;11.40;;;3.40;;
4434;SDS011;46552;52.150;8.428;2023-03-23T02:48:53;8.27;;;3.20;;
4434;SDS011;46552;52.150;8.428;2023-03-23T02:51:22;6.57;;;2.97;;
4434;SDS011;46552;52.150;8.428;2023-03-23T02:53:51;7.50;;;2.83;;
4434;SDS011;46552;52.150;8.428;2023-03-23T02:56:22;8.20;;;3.37;;
4434;SDS011;46552;52.150;8.428;2023-03-23T02:58:53;9.33;;;3.10;;
4434;SDS011;46552;52.150;8.428;2023-03-23T03:04:30;15.13;;;3.70;;
4434;SDS011;46552;52.150;8.428;2023-03-23T03:07:09;5.23;;;3.20;;
4434;SDS011;46552;52.150;8.428;2023-03-23T03:09:46;6.23;;;2.57;;
4434;SDS011;46552;52.150;8.428;2023-03-23T03:12:19;8.90;;;3.33;;
4434;SDS011;46552;52.150;8.428;2023-03-23T03:14:52;5.23;;;2.97;;
4434;SDS011;46552;52.150;8.428;2023-03-23T03:17:24;6.97;;;3.10;;
4434;SDS011;46552;52.150;8.428;2023-03-23T03:19:56;5.07;;;2.47;;
4434;SDS011;46552;52.150;8.428;2023-03-23T03:22:29;5.60;;;2.90;;
4434;SDS011;46552;52.150;8.428;2023-03-23T03:24:57;4.47;;;2.67;;
4434;SDS011;46552;52.150;8.428;2023-03-23T03:27:26;5.17;;;2.67;;
4434;SDS011;46552;52.150;8.428;2023-03-23T03:29:55;7.97;;;3.03;;
4434;SDS011;46552;52.150;8.428;2023-03-23T03:32:31;8.33;;;3.07;;
4434;SDS011;46552;52.150;8.428;2023-03-23T03:35:07;5.93;;;2.50;;
4434;SDS011;46552;52.150;8.428;2023-03-23T03:37:36;5.23;;;2.87;;
4434;SDS011;46552;52.150;8.428;2023-03-23T03:40:05;3.90;;;2.07;;
4434;SDS011;46552;52.150;8.428;2023-03-23T03:42:36;4.13;;;2.30;;
4434;SDS011;46552;52.150;8.428;2023-03-23T03:45:04;6.10;;;3.00;;
4434;SDS011;46552;52.150;8.428;2023-03-23T03:47:32;10.37;;;2.93;;
4434;SDS011;46552;52.150;8.428;2023-03-23T03:50:00;6.47;;;2.40;;
4434;SDS011;46552;52.150;8.428;2023-03-23T03:52:29;7.33;;;3.10;;
4434;SDS011;46552;52.150;8.428;2023-03-23T03:54:56;4.47;;;2.70;;
4434;SDS011;46552;52.150;8.428;2023-03-23T03:57:24;5.77;;;2.43;;
4434;SDS011;46552;52.150;8.428;2023-03-23T03:59:51;4.20;;;2.40;;
4434;SDS011;46552;52.150;8.428;2023-03-23T04:02:18;7.83;;;2.77;;
4434;SDS011;46552;52.150;8.428;2023-03-23T04:04:46;12.87;;;3.20;;
4434;SDS011;46552;52.150;8.428;2023-03-23T04:07:13;9.20;;;2.70;;
4434;SDS011;46552;52.150;8.428;2023-03-23T04:09:44;6.47;;;2.60;;
4434;SDS011;46552;52.150;8.428;2023-03-23T04:12:12;4.43;;;2.50;;
4434;SDS011;46552;52.150;8.428;2023-03-23T04:14:39;6.10;;;2.67;;
4434;SDS011;46552;52.150;8.428;2023-03-23T04:17:07;3.27;;;1.70;;
4434;SDS011;46552;52.150;8.428;2023-03-23T04:19:35;5.50;;;2.70;;
4434;SDS011;46552;52.150;8.428;2023-03-23T04:22:03;13.23;;;3.10;;
4434;SDS011;46552;52.150;8.428;2023-03-23T04:24:31;5.80;;;2.33;;
4434;SDS011;46552;52.150;8.428;2023-03-23T04:27:02;5.50;;;2.47;;
4434;SDS011;46552;52.150;8.428;2023-03-23T04:29:30;4.37;;;2.27;;
4434;SDS011;46552;52.150;8.428;2023-03-23T04:31:58;5.10;;;2.50;;
4434;SDS011;46552;52.150;8.428;2023-03-23T04:34:27;7.03;;;3.07;;
4434;SDS011;46552;52.150;8.428;2023-03-23T04:36:59;5.30;;;2.80;;
4434;SDS011;46552;52.150;8.428;2023-03-23T04:39:26;4.67;;;2.23;;
4434;SDS011;46552;52.150;8.428;2023-03-23T04:41:58;5.40;;;2.37;;
4434;SDS011;46552;52.150;8.428;2023-03-23T04:44:28;5.73;;;2.43;;
4434;SDS011;46552;52.150;8.428;2023-03-23T04:46:57;5.23;;;2.90;;
4434;SDS011;46552;52.150;8.428;2023-03-23T04:49:26;5.53;;;2.60;;
4434;SDS011;46552;52.150;8.428;2023-03-23T04:51:55;4.60;;;2.13;;
4434;SDS011;46552;52.150;8.428;2023-03-23T04:54:22;4.37;;;2.73;;
4434;SDS011;46552;52.150;8.428;2023-03-23T04:56:49;4.80;;;2.50;;
4434;SDS011;46552;52.150;8.428;2023-03-23T04:59:17;5.67;;;2.87;;
4434;SDS011;46552;52.150;8.428;2023-03-23T05:01:47;10.33;;;2.70;;
4434;SDS011;46552;52.150;8.428;2023-03-23T05:04:14;4.50;;;2.60;;
4434;SDS011;46552;52.150;8.428;2023-03-23T05:06:41;5.13;;;2.60;;
4434;SDS011;46552;52.150;8.428;2023-03-23T05:09:11;5.73;;;2.40;;
4434;SDS011;46552;52.150;8.428;2023-03-23T05:11:38;5.73;;;3.20;;
4434;SDS011;46552;52.150;8.428;2023-03-23T05:14:06;4.47;;;2.27;;
4434;SDS011;46552;52.150;8.428;2023-03-23T05:16:33;5.73;;;2.90;;
4434;SDS011;46552;52.150;8.428;2023-03-23T05:19:03;4.50;;;2.77;;
4434;SDS011;46552;52.150;8.428;2023-03-23T05:21:30;4.43;;;2.43;;
4434;SDS011;46552;52.150;8.428;2023-03-23T05:23:59;5.37;;;2.63;;
4434;SDS011;46552;52.150;8.428;2023-03-23T05:26:27;5.03;;;3.07;;
4434;SDS011;46552;52.150;8.428;2023-03-23T05:28:55;7.40;;;2.90;;
4434;SDS011;46552;52.150;8.428;2023-03-23T05:31:24;6.97;;;2.00;;
4434;SDS011;46552;52.150;8.428;2023-03-23T05:33:51;7.40;;;2.73;;
4434;SDS011;46552;52.150;8.428;2023-03-23T05:36:20;5.87;;;3.00;;
4434;SDS011;46552;52.150;8.428;2023-03-23T05:38:47;5.60;;;2.80;;
4434;SDS011;46552;52.150;8.428;2023-03-23T05:41:15;4.80;;;2.60;;
4434;SDS011;46552;52.150;8.428;2023-03-23T05:43:43;7.27;;;3.23;;
4434;SDS011;46552;52.150;8.428;2023-03-23T05:46:10;6.10;;;2.83;;
4434;SDS011;46552;52.150;8.428;2023-03-23T05:48:38;5.10;;;2.53;;
4434;SDS011;46552;52.150;8.428;2023-03-23T05:51:05;5.03;;;2.60;;
4434;SDS011;46552;52.150;8.428;2023-03-23T05:53:35;6.93;;;2.40;;
4434;SDS011;46552;52.150;8.428;2023-03-23T05:56:02;4.50;;;2.90;;
4434;SDS011;46552;52.150;8.428;2023-03-23T05:58:31;5.50;;;2.70;;
4434;SDS011;46552;52.150;8.428;2023-03-23T06:00:59;5.90;;;2.77;;
4434;SDS011;46552;52.150;8.428;2023-03-23T06:03:26;8.10;;;2.83;;
4434;SDS011;46552;52.150;8.428;2023-03-23T06:05:54;3.73;;;2.43;;
4434;SDS011;46552;52.150;8.428;2023-03-23T06:08:21;7.50;;;2.63;;
4434;SDS011;46552;52.150;8.428;2023-03-23T06:10:50;4.00;;;2.70;;
4434;SDS011;46552;52.150;8.428;2023-03-23T06:13:18;4.37;;;2.87;;
4434;SDS011;46552;52.150;8.428;2023-03-23T06:15:46;5.93;;;2.90;;
4434;SDS011;46552;52.150;8.428;2023-03-23T06:18:13;7.70;;;3.43;;
4434;SDS011;46552;52.150;8.428;2023-03-23T06:20:41;4.67;;;2.67;;
4434;SDS011;46552;52.150;8.428;2023-03-23T06:23:09;14.27;;;2.47;;
4434;SDS011;46552;52.150;8.428;2023-03-23T06:25:36;7.93;;;3.50;;
4434;SDS011;46552;52.150;8.428;2023-03-23T06:28:09;7.13;;;2.77;;
4434;SDS011;46552;52.150;8.428;2023-03-23T06:30:36;5.67;;;2.70;;
4434;SDS011;46552;52.150;8.428;2023-03-23T06:33:03;5.70;;;3.30;;
4434;SDS011;46552;52.150;8.428;2023-03-23T06:35:34;5.07;;;2.70;;
4434;SDS011;46552;52.150;8.428;2023-03-23T06:38:01;5.70;;;3.53;;
4434;SDS011;46552;52.150;8.428;2023-03-23T06:40:29;5.93;;;2.80;;
4434;SDS011;46552;52.150;8.428;2023-03-23T06:42:57;8.50;;;3.20;;
4434;SDS011;46552;52.150;8.428;2023-03-23T06:45:27;8.67;;;3.10;;
4434;SDS011;46552;52.150;8.428;2023-03-23T06:47:54;4.87;;;2.73;;
4434;SDS011;46552;52.150;8.428;2023-03-23T06:50:21;4.80;;;2.90;;
4434;SDS011;46552;52.150;8.428;2023-03-23T06:52:49;5.77;;;2.97;;
4434;SDS011;46552;52.150;8.428;2023-03-23T06:55:18;4.83;;;2.53;;
4434;SDS011;46552;52.150;8.428;2023-03-23T06:57:46;4.73;;;2.63;;
4434;SDS011;46552;52.150;8.428;2023-03-23T07:00:14;8.43;;;2.73;;
4434;SDS011;46552;52.150;8.428;2023-03-23T07:02:45;5.83;;;2.87;;
4434;SDS011;46552;52.150;8.428;2023-03-23T07:05:12;6.37;;;2.97;;
4434;SDS011;46552;52.150;8.428;2023-03-23T07:07:41;6.83;;;2.83;;
4434;SDS011;46552;52.150;8.428;2023-03-23T07:10:09;4.43;;;2.57;;
4434;SDS011;46552;52.150;8.428;2023-03-23T07:12:36;5.50;;;2.80;;
4434;SDS011;46552;52.150;8.428;2023-03-23T07:15:05;6.23;;;2.47;;
4434;SDS011;46552;52.150;8.428;2023-03-23T07:17:35;9.13;;;3.70;;
4434;SDS011;46552;52.150;8.428;2023-03-23T07:20:05;8.00;;;3.03;;
4434;SDS011;46552;52.150;8.428;2023-03-23T07:22:34;6.37;;;3.30;;
4434;SDS011;46552;52.150;8.428;2023-03-23T07:25:01;7.23;;;2.33;;
4434;SDS011;46552;52.150;8.428;2023-03-23T07:27:29;5.30;;;3.00;;
4434;SDS011;46552;52.150;8.428;2023-03-23T07:29:56;4.40;;;2.47;;
4434;SDS011;46552;52.150;8.428;2023-03-23T07:32:24;4.90;;;2.40;;
4434;SDS011;46552;52.150;8.428;2023-03-23T07:34:51;5.57;;;2.87;;
4434;SDS011;46552;52.150;8.428;2023-03-23T07:37:20;5.60;;;2.23;;
4434;SDS011;46552;52.150;8.428;2023-03-23T07:39:48;5.93;;;3.10;;
4434;SDS011;46552;52.150;8.428;2023-03-23T07:42:16;6.23;;;2.20;;
4434;SDS011;46552;52.150;8.428;2023-03-23T07:44:43;4.90;;;3.03;;
4434;SDS011;46552;52.150;8.428;2023-03-23T07:47:10;18.53;;;2.83;;
4434;SDS011;46552;52.150;8.428;2023-03-23T07:49:38;7.03;;;3.00;;
4434;SDS011;46552;52.150;8.428;2023-03-23T07:52:05;6.83;;;3.03;;
4434;SDS011;46552;52.150;8.428;2023-03-23T07:54:36;6.70;;;2.90;;
4434;SDS011;46552;52.150;8.428;2023-03-23T07:57:03;4.43;;;2.43;;
4434;SDS011;46552;52.150;8.428;2023-03-23T07:59:31;5.07;;;2.80;;
4434;SDS011;46552;52.150;8.428;2023-03-23T08:01:58;7.33;;;3.50;;
4434;SDS011;46552;52.150;8.428;2023-03-23T08:04:26;7.60;;;3.40;;
4434;SDS011;46552;52.150;8.428;2023-03-23T08:06:53;5.53;;;2.80;;
4434;SDS011;46552;52.150;8.428;2023-03-23T08:09:21;8.00;;;2.60;;
4434;SDS011;46552;52.150;8.428;2023-03-23T08:11:50;10.93;;;3.40;;
4434;SDS011;46552;52.150;8.428;2023-03-23T08:14:18;8.53;;;3.53;;
4434;SDS011;46552;52.150;8.428;2023-03-23T08:16:45;5.43;;;3.13;;
4434;SDS011;46552;52.150;8.428;2023-03-23T08:19:14;8.43;;;3.17;;
4434;SDS011;46552;52.150;8.428;2023-03-23T08:21:41;6.53;;;2.80;;
4434;SDS011;46552;52.150;8.428;2023-03-23T08:24:08;10.83;;;3.80;;
4434;SDS011;46552;52.150;8.428;2023-03-23T08:26:36;9.60;;;3.27;;
4434;SDS011;46552;52.150;8.428;2023-03-23T08:29:05;8.43;;;3.77;;
4434;SDS011;46552;52.150;8.428;2023-03-23T08:31:32;5.80;;;3.00;;
4434;SDS011;46552;52.150;8.428;2023-03-23T08:34:02;6.90;;;3.10;;
4434;SDS011;46552;52.150;8.428;2023-03-23T08:36:30;12.30;;;3.27;;
4434;SDS011;46552;52.150;8.428;2023-03-23T08:38:57;8.13;;;3.77;;
4434;SDS011;46552;52.150;8.428;2023-03-23T08:41:25;11.10;;;4.30;;
4434;SDS011;46552;52.150;8.428;2023-03-23T08:43:53;8.60;;;3.63;;
4434;SDS011;46552;52.150;8.428;2023-03-23T08:46:22;7.63;;;3.73;;
4434;SDS011;46552;52.150;8.428;2023-03-23T08:48:49;6.20;;;2.87;;
4434;SDS011;46552;52.150;8.428;2023-03-23T08:51:16;6.70;;;2.87;;
4434;SDS011;46552;52.150;8.428;2023-03-23T08:53:44;7.90;;;3.30;;
4434;SDS011;46552;52.150;8.428;2023-03-23T08:56:11;7.43;;;2.87;;
4434;SDS011;46552;52.150;8.428;2023-03-23T08:58:39;6.90;;;2.87;;
4434;SDS011;46552;52.150;8.428;2023-03-23T09:01:07;9.27;;;3.70;;
4434;SDS011;46552;52.150;8.428;2023-03-23T09:03:37;11.50;;;3.33;;
4434;SDS011;46552;52.150;8.428;2023-03-23T09:06:06;11.03;;;3.50;;
4434;SDS011;46552;52.150;8.428;2023-03-23T09:08:37;9.67;;;3.47;;
4434;SDS011;46552;52.150;8.428;2023-03-23T09:11:06;5.73;;;3.10;;
4434;SDS011;46552;52.150;8.428;2023-03-23T09:13:35;12.03;;;3.43;;
4434;SDS011;46552;52.150;8.428;2023-03-23T09:16:03;6.40;;;3.73;;
4434;SDS011;46552;52.150;8.428;2023-03-23T09:18:31;7.50;;;3.23;;
4434;SDS011;46552;52.150;8.428;2023-03-23T09:21:02;7.73;;;3.20;;
4434;SDS011;46552;52.150;8.428;2023-03-23T09:23:30;11.23;;;4.13;;
4434;SDS011;46552;52.150;8.428;2023-03-23T09:25:59;4.50;;;2.73;;
4434;SDS011;46552;52.150;8.428;2023-03-23T09:28:27;16.53;;;3.40;;
4434;SDS011;46552;52.150;8.428;2023-03-23T09:30:56;7.70;;;3.77;;
4434;SDS011;46552;52.150;8.428;2023-03-23T09:33:24;13.43;;;4.73;;
4434;SDS011;46552;52.150;8.428;2023-03-23T09:35:52;7.93;;;3.87;;
4434;SDS011;46552;52.150;8.428;2023-03-23T09:38:20;9.03;;;3.63;;
4434;SDS011;46552;52.150;8.428;2023-03-23T09:40:50;12.33;;;3.20;;
4434;SDS011;46552;52.150;8.428;2023-03-23T09:43:25;6.03;;;2.60;;
4434;SDS011;46552;52.150;8.428;2023-03-23T09:46:25;8.00;;;2.80;;
4434;SDS011;46552;52.150;8.428;2023-03-23T09:49:02;8.37;;;2.73;;
4434;SDS011;46552;52.150;8.428;2023-03-23T09:51:38;11.30;;;3.27;;
4434;SDS011;46552;52.150;8.428;2023-03-23T09:54:12;8.33;;;3.70;;
4434;SDS011;46552;52.150;8.428;2023-03-23T09:56:45;10.00;;;3.80;;
4434;SDS011;46552;52.150;8.428;2023-03-23T09:59:16;8.23;;;3.33;;
4434;SDS011;46552;52.150;8.428;2023-03-23T10:01:48;5.93;;;2.80;;
4434;SDS011;46552;52.150;8.428;2023-03-23T10:04:28;5.20;;;2.83;;
4434;SDS011;46552;52.150;8.428;2023-03-23T10:07:05;8.03;;;3.33;;
4434;SDS011;46552;52.150;8.428;2023-03-23T10:09:40;9.70;;;4.63;;
4434;SDS011;46552;52.150;8.428;2023-03-23T10:12:18;6.13;;;3.40;;
4434;SDS011;46552;52.150;8.428;2023-03-23T10:15:02;9.83;;;3.00;;
4434;SDS011;46552;52.150;8.428;2023-03-23T10:17:39;9.33;;;3.67;;
4434;SDS011;46552;52.150;8.428;2023-03-23T10:20:16;10.37;;;3.33;;
4434;SDS011;46552;52.150;8.428;2023-03-23T10:23:01;15.17;;;4.10;;
4434;SDS011;46552;52.150;8.428;2023-03-23T10:25:36;9.97;;;3.73;;
4434;SDS011;46552;52.150;8.428;2023-03-23T10:28:09;10.17;;;3.63;;
4434;SDS011;46552;52.150;8.428;2023-03-23T10:30:40;9.90;;;3.97;;
4434;SDS011;46552;52.150;8.428;2023-03-23T10:33:11;9.97;;;4.50;;
4434;SDS011;46552;52.150;8.428;2023-03-23T10:35:43;19.13;;;4.87;;
4434;SDS011;46552;52.150;8.428;2023-03-23T10:38:14;9.83;;;4.27;;
4434;SDS011;46552;52.150;8.428;2023-03-23T10:40:49;9.83;;;4.50;;
4434;SDS011;46552;52.150;8.428;2023-03-23T10:43:20;9.90;;;4.27;;
4434;SDS011;46552;52.150;8.428;2023-03-23T10:45:52;15.00;;;3.97;;
4434;SDS011;46552;52.150;8.428;2023-03-23T10:48:25;8.37;;;2.97;;
4434;SDS011;46552;52.150;8.428;2023-03-23T10:50:56;7.53;;;2.10;;
4434;SDS011;46552;52.150;8.428;2023-03-23T10:53:27;5.50;;;2.70;;
4434;SDS011;46552;52.150;8.428;2023-03-23T10:56:00;9.70;;;2.10;;
4434;SDS011;46552;52.150;8.428;2023-03-23T10:58:28;7.67;;;1.80;;
4434;SDS011;46552;52.150;8.428;2023-03-23T11:00:57;7.63;;;2.20;;
4434;SDS011;46552;52.150;8.428;2023-03-23T11:03:27;7.90;;;2.10;;
4434;SDS011;46552;52.150;8.428;2023-03-23T11:06:01;5.70;;;2.77;;
4434;SDS011;46552;52.150;8.428;2023-03-23T11:08:30;2.60;;;1.10;;
4434;SDS011;46552;52.150;8.428;2023-03-23T11:11:10;5.27;;;1.67;;
4434;SDS011;46552;52.150;8.428;2023-03-23T11:13:39;2.93;;;1.10;;
4434;SDS011;46552;52.150;8.428;2023-03-23T11:16:21;4.63;;;1.20;;
4434;SDS011;46552;52.150;8.428;2023-03-23T11:18:51;6.13;;;1.43;;
4434;SDS011;46552;52.150;8.428;2023-03-23T11:21:19;4.10;;;1.77;;
4434;SDS011;46552;52.150;8.428;2023-03-23T11:23:49;3.00;;;1.20;;
4434;SDS011;46552;52.150;8.428;2023-03-23T11:26:21;1.90;;;0.90;;
4434;SDS011;46552;52.150;8.428;2023-03-23T11:28:52;6.77;;;1.20;;
4434;SDS011;46552;52.150;8.428;2023-03-23T11:31:23;3.70;;;1.20;;
4434;SDS011;46552;52.150;8.428;2023-03-23T11:33:54;4.57;;;1.60;;
4434;SDS011;46552;52.150;8.428;2023-03-23T11:36:29;2.50;;;0.80;;
4434;SDS011;46552;52.150;8.428;2023-03-23T11:39:02;3.33;;;1.63;;
4434;SDS011;46552;52.150;8.428;2023-03-23T11:41:34;11.20;;;1.30;;
4434;SDS011;46552;52.150;8.428;2023-03-23T11:44:08;5.80;;;1.40;;
4434;SDS011;46552;52.150;8.428;2023-03-23T11:46:40;2.87;;;1.20;;
4434;SDS011;46552;52.150;8.428;2023-03-23T11:49:20;5.87;;;1.57;;
4434;SDS011;46552;52.150;8.428;2023-03-23T11:51:54;3.20;;;1.90;;
4434;SDS011;46552;52.150;8.428;2023-03-23T11:54:28;5.83;;;1.33;;
4434;SDS011;46552;52.150;8.428;2023-03-23T11:57:00;7.93;;;1.40;;
4434;SDS011;46552;52.150;8.428;2023-03-23T11:59:28;5.40;;;1.33;;
4434;SDS011;46552;52.150;8.428;2023-03-23T12:02:01;4.03;;;1.30;;
4434;SDS011;46552;52.150;8.428;2023-03-23T12:04:50;5.70;;;1.80;;
4434;SDS011;46552;52.150;8.428;2023-03-23T12:07:34;2.90;;;1.20;;
4434;SDS011;46552;52.150;8.428;2023-03-23T12:10:24;4.60;;;1.37;;
4434;SDS011;46552;52.150;8.428;2023-03-23T12:13:13;6.10;;;1.60;;
4434;SDS011;46552;52.150;8.428;2023-03-23T12:15:50;10.63;;;1.50;;
4434;SDS011;46552;52.150;8.428;2023-03-23T12:18:28;5.27;;;1.57;;
4434;SDS011;46552;52.150;8.428;2023-03-23T12:21:05;4.87;;;1.57;;
4434;SDS011;46552;52.150;8.428;2023-03-23T12:23:43;7.10;;;1.60;;
4434;SDS011;46552;52.150;8.428;2023-03-23T12:26:18;3.47;;;1.43;;
4434;SDS011;46552;52.150;8.428;2023-03-23T12:28:59;2.77;;;1.20;;
4434;SDS011;46552;52.150;8.428;2023-03-23T12:31:43;9.67;;;1.53;;
4434;SDS011;46552;52.150;8.428;2023-03-23T12:34:17;8.00;;;1.43;;
4434;SDS011;46552;52.150;8.428;2023-03-23T12:36:56;5.30;;;1.93;;
4434;SDS011;46552;52.150;8.428;2023-03-23T12:39:42;6.07;;;1.73;;
4434;SDS011;46552;52.150;8.428;2023-03-23T12:42:42;3.73;;;1.10;;
4434;SDS011;46552;52.150;8.428;2023-03-23T12:45:18;6.90;;;1.73;;
4434;SDS011;46552;52.150;8.428;2023-03-23T12:47:50;4.03;;;1.53;;
4434;SDS011;46552;52.150;8.428;2023-03-23T12:50:24;3.67;;;1.60;;
4434;SDS011;46552;52.150;8.428;2023-03-23T12:52:56;6.03;;;1.60;;
4434;SDS011;46552;52.150;8.428;2023-03-23T12:55:30;4.60;;;1.50;;
4434;SDS011;46552;52.150;8.428;2023-03-23T12:58:03;2.77;;;1.03;;
4434;SDS011;46552;52.150;8.428;2023-03-23T13:00:35;4.83;;;1.60;;
4434;SDS011;46552;52.150;8.428;2023-03-23T13:03:17;4.30;;;2.00;;
4434;SDS011;46552;52.150;8.428;2023-03-23T13:05:52;5.33;;;1.20;;
4434;SDS011;46552;52.150;8.428;2023-03-23T13:08:25;4.83;;;1.63;;
4434;SDS011;46552;52.150;8.428;2023-03-23T13:10:57;6.43;;;1.40;;
4434;SDS011;46552;52.150;8.428;2023-03-23T13:13:39;6.87;;;1.87;;
4434;SDS011;46552;52.150;8.428;2023-03-23T13:16:19;6.47;;;1.67;;
4434;SDS011;46552;52.150;8.428;2023-03-23T13:18:57;5.67;;;1.50;;
4434;SDS011;46552;52.150;8.428;2023-03-23T13:21:35;4.00;;;1.40;;
4434;SDS011;46552;52.150;8.428;2023-03-23T13:24:10;4.17;;;1.23;;
4434;SDS011;46552;52.150;8.428;2023-03-23T13:26:41;4.70;;;1.50;;
4434;SDS011;46552;52.150;8.428;2023-03-23T13:29:12;4.53;;;1.37;;
4434;SDS011;46552;52.150;8.428;2023-03-23T13:31:46;5.10;;;1.63;;
4434;SDS011;46552;52.150;8.428;2023-03-23T13:34:16;5.37;;;1.63;;
4434;SDS011;46552;52.150;8.428;2023-03-23T13:36:51;7.87;;;2.07;;
4434;SDS011;46552;52.150;8.428;2023-03-23T13:39:21;3.27;;;1.37;;
4434;SDS011;46552;52.150;8.428;2023-03-23T13:41:59;4.77;;;1.30;;
4434;SDS011;46552;52.150;8.428;2023-03-23T13:44:39;3.30;;;1.50;;
4434;SDS011;46552;52.150;8.428;2023-03-23T13:47:21;4.70;;;1.50;;
4434;SDS011;46552;52.150;8.428;2023-03-23T13:49:55;3.30;;;1.30;;
4434;SDS011;46552;52.150;8.428;2023-03-23T13:52:24;5.23;;;1.30;;
4434;SDS011;46552;52.150;8.428;2023-03-23T13:58:11;2.93;;;1.57;;
4434;SDS011;46552;52.150;8.428;2023-03-23T14:00:50;4.93;;;2.00;;
4434;SDS011;46552;52.150;8.428;2023-03-23T14:03:38;5.40;;;2.77;;
4434;SDS011;46552;52.150;8.428;2023-03-23T14:06:11;5.80;;;2.73;;
4434;SDS011;46552;52.150;8.428;2023-03-23T14:08:42;6.63;;;2.80;;
4434;SDS011;46552;52.150;8.428;2023-03-23T14:11:12;4.23;;;2.40;;
4434;SDS011;46552;52.150;8.428;2023-03-23T14:13:45;5.13;;;2.40;;
4434;SDS011;46552;52.150;8.428;2023-03-23T14:16:19;4.30;;;2.13;;
4434;SDS011;46552;52.150;8.428;2023-03-23T14:18:50;5.70;;;2.80;;
4434;SDS011;46552;52.150;8.428;2023-03-23T14:21:33;4.47;;;2.40;;
4434;SDS011;46552;52.150;8.428;2023-03-23T14:24:03;4.53;;;2.60;;
4434;SDS011;46552;52.150;8.428;2023-03-23T14:26:35;4.77;;;2.90;;
4434;SDS011;46552;52.150;8.428;2023-03-23T14:29:02;5.10;;;2.60;;
4434;SDS011;46552;52.150;8.428;2023-03-23T14:31:31;5.30;;;2.80;;
4434;SDS011;46552;52.150;8.428;2023-03-23T14:34:05;4.83;;;3.50;;
4434;SDS011;46552;52.150;8.428;2023-03-23T14:36:38;5.40;;;3.00;;
4434;SDS011;46552;52.150;8.428;2023-03-23T14:39:16;7.43;;;3.80;;
4434;SDS011;46552;52.150;8.428;2023-03-23T14:41:47;6.20;;;3.53;;
4434;SDS011;46552;52.150;8.428;2023-03-23T14:44:15;5.40;;;3.40;;
4434;SDS011;46552;52.150;8.428;2023-03-23T14:46:44;6.43;;;4.40;;
4434;SDS011;46552;52.150;8.428;2023-03-23T14:49:15;10.33;;;5.00;;
4434;SDS011;46552;52.150;8.428;2023-03-23T14:51:47;7.70;;;5.13;;
4434;SDS011;46552;52.150;8.428;2023-03-23T14:54:18;8.13;;;5.73;;
4434;SDS011;46552;52.150;8.428;2023-03-23T14:56:49;7.10;;;6.17;;
4434;SDS011;46552;52.150;8.428;2023-03-23T14:59:17;7.63;;;5.80;;
4434;SDS011;46552;52.150;8.428;2023-03-23T15:01:45;7.83;;;5.50;;
4434;SDS011;46552;52.150;8.428;2023-03-23T15:04:16;9.60;;;6.37;;
4434;SDS011;46552;52.150;8.428;2023-03-23T15:06:46;9.40;;;6.00;;
4434;SDS011;46552;52.150;8.428;2023-03-23T15:09:18;10.00;;;5.97;;
4434;SDS011;46552;52.150;8.428;2023-03-23T15:11:51;13.37;;;6.50;;
4434;SDS011;46552;52.150;8.428;2023-03-23T15:14:22;16.30;;;6.40;;
4434;SDS011;46552;52.150;8.428;2023-03-23T15:16:52;11.97;;;7.00;;
4434;SDS011;46552;52.150;8.428;2023-03-23T15:19:24;8.73;;;6.03;;
4434;SDS011;46552;52.150;8.428;2023-03-23T15:21:55;7.17;;;5.80;;
4434;SDS011;46552;52.150;8.428;2023-03-23T15:24:27;8.10;;;6.63;;
4434;SDS011;46552;52.150;8.428;2023-03-23T15:27:15;13.50;;;7.00;;
4434;SDS011;46552;52.150;8.428;2023-03-23T15:29:47;10.27;;;7.53;;
4434;SDS011;46552;52.150;8.428;2023-03-23T15:32:23;12.10;;;7.27;;